Athena, Oregon
Current Conditions -  °F | °C
As of 12:53 AM on Friday 19 Dec 2014 (Local Time) from KPDT Reporting Station
Light Rain Light Rain  
Wind Chill:   Ceiling: 7000
Heat Index:   Visibility: 9mi
Dew Point:   Wind: 12mph
Humidity: 79%   Direction: 110°ESE
Pressure: 29.84"   Gusts: NA
Location:  45.81°N, 118.49°W
Report Text: KPDT 190853Z AUTO 11010KT 9SM -RA OVC070 07/03 A2984 RMK AO2 RAB34 SLP106 P0000 60000 T00670033 58013
Loading
Personal Weather Stations






























Interactive Weather Map New forecast layout! Learn more

10-Day Weather Forecast

Advertisements
Track Severe Weather on mobile